sensor_id;sensor_type;location;lat;lon;timestamp;P1;durP1;ratioP1;P2;durP2;ratioP2
29568;SDS011;16501;51.462;14.346;2023-05-07T00:00:34;18.33;;;11.25;;
29568;SDS011;16501;51.462;14.346;2023-05-07T00:02:59;19.02;;;12.05;;
29568;SDS011;16501;51.462;14.346;2023-05-07T00:05:26;18.63;;;11.30;;
29568;SDS011;16501;51.462;14.346;2023-05-07T00:07:51;18.40;;;11.38;;
29568;SDS011;16501;51.462;14.346;2023-05-07T00:10:17;26.40;;;12.38;;
29568;SDS011;16501;51.462;14.346;2023-05-07T00:12:43;20.63;;;10.68;;
29568;SDS011;16501;51.462;14.346;2023-05-07T00:15:08;18.45;;;11.07;;
29568;SDS011;16501;51.462;14.346;2023-05-07T00:17:33;18.25;;;11.32;;
29568;SDS011;16501;51.462;14.346;2023-05-07T00:19:59;19.38;;;10.15;;
29568;SDS011;16501;51.462;14.346;2023-05-07T00:22:24;18.30;;;10.30;;
29568;SDS011;16501;51.462;14.346;2023-05-07T00:24:49;17.55;;;10.30;;
29568;SDS011;16501;51.462;14.346;2023-05-07T00:27:15;19.45;;;9.88;;
29568;SDS011;16501;51.462;14.346;2023-05-07T00:29:40;19.10;;;9.65;;
29568;SDS011;16501;51.462;14.346;2023-05-07T00:32:06;16.23;;;9.45;;
29568;SDS011;16501;51.462;14.346;2023-05-07T00:34:31;14.02;;;9.55;;
29568;SDS011;16501;51.462;14.346;2023-05-07T00:36:56;13.77;;;9.48;;
29568;SDS011;16501;51.462;14.346;2023-05-07T00:39:21;11.35;;;7.78;;
29568;SDS011;16501;51.462;14.346;2023-05-07T00:41:47;14.48;;;9.15;;
29568;SDS011;16501;51.462;14.346;2023-05-07T00:44:12;12.75;;;8.35;;
29568;SDS011;16501;51.462;14.346;2023-05-07T00:46:39;12.98;;;8.25;;
29568;SDS011;16501;51.462;14.346;2023-05-07T00:49:05;15.40;;;8.68;;
29568;SDS011;16501;51.462;14.346;2023-05-07T00:51:30;11.88;;;8.02;;
29568;SDS011;16501;51.462;14.346;2023-05-07T00:53:56;11.25;;;7.82;;
29568;SDS011;16501;51.462;14.346;2023-05-07T00:56:21;16.10;;;8.82;;
29568;SDS011;16501;51.462;14.346;2023-05-07T00:58:47;12.57;;;7.90;;
29568;SDS011;16501;51.462;14.346;2023-05-07T01:01:13;13.57;;;8.98;;
29568;SDS011;16501;51.462;14.346;2023-05-07T01:03:40;12.70;;;8.40;;
29568;SDS011;16501;51.462;14.346;2023-05-07T01:06:06;12.95;;;8.70;;
29568;SDS011;16501;51.462;14.346;2023-05-07T01:08:32;12.38;;;8.70;;
29568;SDS011;16501;51.462;14.346;2023-05-07T01:10:59;10.63;;;8.02;;
29568;SDS011;16501;51.462;14.346;2023-05-07T01:13:25;11.55;;;8.27;;
29568;SDS011;16501;51.462;14.346;2023-05-07T01:15:51;12.50;;;8.73;;
29568;SDS011;16501;51.462;14.346;2023-05-07T01:18:17;14.77;;;9.18;;
29568;SDS011;16501;51.462;14.346;2023-05-07T01:20:42;12.30;;;8.98;;
29568;SDS011;16501;51.462;14.346;2023-05-07T01:23:08;12.43;;;9.18;;
29568;SDS011;16501;51.462;14.346;2023-05-07T01:25:35;14.80;;;8.80;;
29568;SDS011;16501;51.462;14.346;2023-05-07T01:28:00;17.17;;;9.15;;
29568;SDS011;16501;51.462;14.346;2023-05-07T01:30:26;13.10;;;7.97;;
29568;SDS011;16501;51.462;14.346;2023-05-07T01:32:57;13.85;;;8.32;;
29568;SDS011;16501;51.462;14.346;2023-05-07T01:35:29;14.30;;;7.85;;
29568;SDS011;16501;51.462;14.346;2023-05-07T01:37:59;10.90;;;7.65;;
29568;SDS011;16501;51.462;14.346;2023-05-07T01:40:25;12.57;;;8.13;;
29568;SDS011;16501;51.462;14.346;2023-05-07T01:42:52;13.23;;;8.05;;
29568;SDS011;16501;51.462;14.346;2023-05-07T01:45:19;14.85;;;8.98;;
29568;SDS011;16501;51.462;14.346;2023-05-07T01:47:44;10.23;;;7.05;;
29568;SDS011;16501;51.462;14.346;2023-05-07T01:50:10;14.10;;;8.23;;
29568;SDS011;16501;51.462;14.346;2023-05-07T01:52:39;15.05;;;7.95;;
29568;SDS011;16501;51.462;14.346;2023-05-07T01:55:05;27.48;;;11.07;;
29568;SDS011;16501;51.462;14.346;2023-05-07T01:57:31;13.07;;;7.78;;
29568;SDS011;16501;51.462;14.346;2023-05-07T01:59:57;15.25;;;7.82;;
29568;SDS011;16501;51.462;14.346;2023-05-07T02:02:22;9.90;;;7.63;;
29568;SDS011;16501;51.462;14.346;2023-05-07T02:04:47;13.50;;;8.40;;
29568;SDS011;16501;51.462;14.346;2023-05-07T02:07:12;15.90;;;8.38;;
29568;SDS011;16501;51.462;14.346;2023-05-07T02:09:38;10.65;;;8.20;;
29568;SDS011;16501;51.462;14.346;2023-05-07T02:12:03;10.27;;;7.57;;
29568;SDS011;16501;51.462;14.346;2023-05-07T02:14:29;12.02;;;7.78;;
29568;SDS011;16501;51.462;14.346;2023-05-07T02:16:54;11.18;;;7.72;;
29568;SDS011;16501;51.462;14.346;2023-05-07T02:19:19;10.80;;;7.65;;
29568;SDS011;16501;51.462;14.346;2023-05-07T02:21:46;15.15;;;8.27;;
29568;SDS011;16501;51.462;14.346;2023-05-07T02:24:11;11.15;;;7.95;;
29568;SDS011;16501;51.462;14.346;2023-05-07T02:26:37;12.82;;;8.25;;
29568;SDS011;16501;51.462;14.346;2023-05-07T02:29:02;13.32;;;8.27;;
29568;SDS011;16501;51.462;14.346;2023-05-07T02:31:27;13.18;;;7.93;;
29568;SDS011;16501;51.462;14.346;2023-05-07T02:33:52;12.82;;;8.45;;
29568;SDS011;16501;51.462;14.346;2023-05-07T02:36:18;13.93;;;9.20;;
29568;SDS011;16501;51.462;14.346;2023-05-07T02:38:43;9.95;;;8.18;;
29568;SDS011;16501;51.462;14.346;2023-05-07T02:41:08;17.20;;;8.80;;
29568;SDS011;16501;51.462;14.346;2023-05-07T02:43:33;13.32;;;8.50;;
29568;SDS011;16501;51.462;14.346;2023-05-07T02:46:05;15.07;;;7.97;;
29568;SDS011;16501;51.462;14.346;2023-05-07T02:48:32;13.93;;;8.40;;
29568;SDS011;16501;51.462;14.346;2023-05-07T02:50:58;13.82;;;8.32;;
29568;SDS011;16501;51.462;14.346;2023-05-07T02:53:24;11.02;;;7.82;;
29568;SDS011;16501;51.462;14.346;2023-05-07T02:55:55;12.70;;;8.38;;
29568;SDS011;16501;51.462;14.346;2023-05-07T02:58:24;16.55;;;7.78;;
29568;SDS011;16501;51.462;14.346;2023-05-07T03:00:50;14.63;;;7.65;;
29568;SDS011;16501;51.462;14.346;2023-05-07T03:03:15;15.75;;;8.40;;
29568;SDS011;16501;51.462;14.346;2023-05-07T03:05:40;12.63;;;8.55;;
29568;SDS011;16501;51.462;14.346;2023-05-07T03:08:06;12.18;;;8.45;;
29568;SDS011;16501;51.462;14.346;2023-05-07T03:10:31;9.90;;;8.02;;
29568;SDS011;16501;51.462;14.346;2023-05-07T03:12:57;18.77;;;8.93;;
29568;SDS011;16501;51.462;14.346;2023-05-07T03:15:22;16.85;;;8.18;;
29568;SDS011;16501;51.462;14.346;2023-05-07T03:17:47;10.75;;;8.23;;
29568;SDS011;16501;51.462;14.346;2023-05-07T03:20:13;13.75;;;8.07;;
29568;SDS011;16501;51.462;14.346;2023-05-07T03:22:38;14.85;;;9.07;;
29568;SDS011;16501;51.462;14.346;2023-05-07T03:25:04;13.63;;;8.40;;
29568;SDS011;16501;51.462;14.346;2023-05-07T03:27:30;11.52;;;8.32;;
29568;SDS011;16501;51.462;14.346;2023-05-07T03:29:55;14.02;;;8.63;;
29568;SDS011;16501;51.462;14.346;2023-05-07T03:32:21;13.38;;;8.02;;
29568;SDS011;16501;51.462;14.346;2023-05-07T03:34:46;11.45;;;8.48;;
29568;SDS011;16501;51.462;14.346;2023-05-07T03:37:12;12.95;;;8.48;;
29568;SDS011;16501;51.462;14.346;2023-05-07T03:39:38;15.82;;;8.98;;
29568;SDS011;16501;51.462;14.346;2023-05-07T03:42:03;17.77;;;9.05;;
29568;SDS011;16501;51.462;14.346;2023-05-07T03:44:28;13.05;;;8.73;;
29568;SDS011;16501;51.462;14.346;2023-05-07T03:46:53;12.82;;;9.13;;
29568;SDS011;16501;51.462;14.346;2023-05-07T03:49:20;18.17;;;8.43;;
29568;SDS011;16501;51.462;14.346;2023-05-07T03:51:45;20.23;;;8.57;;
29568;SDS011;16501;51.462;14.346;2023-05-07T03:54:10;12.20;;;8.50;;
29568;SDS011;16501;51.462;14.346;2023-05-07T03:56:36;11.65;;;8.80;;
29568;SDS011;16501;51.462;14.346;2023-05-07T03:59:01;12.82;;;9.10;;
29568;SDS011;16501;51.462;14.346;2023-05-07T04:01:26;14.73;;;9.13;;
29568;SDS011;16501;51.462;14.346;2023-05-07T04:03:51;14.70;;;8.20;;
29568;SDS011;16501;51.462;14.346;2023-05-07T04:06:17;12.25;;;8.07;;
29568;SDS011;16501;51.462;14.346;2023-05-07T04:08:42;13.13;;;9.05;;
29568;SDS011;16501;51.462;14.346;2023-05-07T04:11:07;15.68;;;9.63;;
29568;SDS011;16501;51.462;14.346;2023-05-07T04:13:33;16.55;;;9.00;;
29568;SDS011;16501;51.462;14.346;2023-05-07T04:15:58;15.50;;;8.98;;
29568;SDS011;16501;51.462;14.346;2023-05-07T04:18:23;14.50;;;8.88;;
29568;SDS011;16501;51.462;14.346;2023-05-07T04:20:49;13.18;;;8.48;;
29568;SDS011;16501;51.462;14.346;2023-05-07T04:23:15;12.07;;;8.85;;
29568;SDS011;16501;51.462;14.346;2023-05-07T04:25:40;13.73;;;9.30;;
29568;SDS011;16501;51.462;14.346;2023-05-07T04:28:06;12.05;;;8.90;;
29568;SDS011;16501;51.462;14.346;2023-05-07T04:30:31;15.00;;;9.55;;
29568;SDS011;16501;51.462;14.346;2023-05-07T04:32:56;13.70;;;8.88;;
29568;SDS011;16501;51.462;14.346;2023-05-07T04:35:22;15.35;;;9.20;;
29568;SDS011;16501;51.462;14.346;2023-05-07T04:37:47;14.65;;;9.25;;
29568;SDS011;16501;51.462;14.346;2023-05-07T04:40:12;13.48;;;8.80;;
29568;SDS011;16501;51.462;14.346;2023-05-07T04:42:38;11.23;;;7.78;;
29568;SDS011;16501;51.462;14.346;2023-05-07T04:45:03;15.43;;;7.70;;
29568;SDS011;16501;51.462;14.346;2023-05-07T04:47:30;11.95;;;7.85;;
29568;SDS011;16501;51.462;14.346;2023-05-07T04:49:55;11.70;;;7.60;;
29568;SDS011;16501;51.462;14.346;2023-05-07T04:52:20;11.80;;;7.97;;
29568;SDS011;16501;51.462;14.346;2023-05-07T04:54:45;13.98;;;7.53;;
29568;SDS011;16501;51.462;14.346;2023-05-07T04:57:11;12.20;;;6.75;;
29568;SDS011;16501;51.462;14.346;2023-05-07T04:59:36;9.60;;;7.13;;
29568;SDS011;16501;51.462;14.346;2023-05-07T05:02:02;10.55;;;7.78;;
29568;SDS011;16501;51.462;14.346;2023-05-07T05:04:29;11.48;;;7.82;;
29568;SDS011;16501;51.462;14.346;2023-05-07T05:06:54;11.93;;;6.78;;
29568;SDS011;16501;51.462;14.346;2023-05-07T05:09:19;11.80;;;6.75;;
29568;SDS011;16501;51.462;14.346;2023-05-07T05:11:44;12.13;;;6.20;;
29568;SDS011;16501;51.462;14.346;2023-05-07T05:14:10;8.75;;;6.13;;
29568;SDS011;16501;51.462;14.346;2023-05-07T05:16:35;8.73;;;6.18;;
29568;SDS011;16501;51.462;14.346;2023-05-07T05:19:01;9.57;;;6.28;;
29568;SDS011;16501;51.462;14.346;2023-05-07T05:21:27;13.40;;;6.80;;
29568;SDS011;16501;51.462;14.346;2023-05-07T05:23:52;8.00;;;5.40;;
29568;SDS011;16501;51.462;14.346;2023-05-07T05:26:17;10.10;;;6.95;;
29568;SDS011;16501;51.462;14.346;2023-05-07T05:28:43;11.43;;;6.80;;
29568;SDS011;16501;51.462;14.346;2023-05-07T05:31:08;10.75;;;6.68;;
29568;SDS011;16501;51.462;14.346;2023-05-07T05:33:34;12.77;;;7.00;;
29568;SDS011;16501;51.462;14.346;2023-05-07T05:35:59;9.00;;;6.03;;
29568;SDS011;16501;51.462;14.346;2023-05-07T05:38:25;6.68;;;5.45;;
29568;SDS011;16501;51.462;14.346;2023-05-07T05:40:50;9.73;;;6.05;;
29568;SDS011;16501;51.462;14.346;2023-05-07T05:43:16;8.07;;;5.75;;
29568;SDS011;16501;51.462;14.346;2023-05-07T05:45:41;10.13;;;5.57;;
29568;SDS011;16501;51.462;14.346;2023-05-07T05:48:06;10.05;;;5.70;;
29568;SDS011;16501;51.462;14.346;2023-05-07T05:50:33;10.35;;;5.95;;
29568;SDS011;16501;51.462;14.346;2023-05-07T05:53:00;7.70;;;5.22;;
29568;SDS011;16501;51.462;14.346;2023-05-07T05:55:26;8.52;;;5.57;;
29568;SDS011;16501;51.462;14.346;2023-05-07T05:57:51;9.35;;;6.07;;
29568;SDS011;16501;51.462;14.346;2023-05-07T06:00:17;8.48;;;5.63;;
29568;SDS011;16501;51.462;14.346;2023-05-07T06:02:42;7.80;;;5.88;;
29568;SDS011;16501;51.462;14.346;2023-05-07T06:05:08;7.70;;;5.20;;
29568;SDS011;16501;51.462;14.346;2023-05-07T06:07:33;9.95;;;5.70;;
29568;SDS011;16501;51.462;14.346;2023-05-07T06:09:59;7.80;;;5.70;;
29568;SDS011;16501;51.462;14.346;2023-05-07T06:12:25;10.27;;;5.68;;
29568;SDS011;16501;51.462;14.346;2023-05-07T06:14:50;10.30;;;6.07;;
29568;SDS011;16501;51.462;14.346;2023-05-07T06:17:15;7.05;;;5.35;;
29568;SDS011;16501;51.462;14.346;2023-05-07T06:19:41;7.50;;;5.57;;
29568;SDS011;16501;51.462;14.346;2023-05-07T06:22:06;7.80;;;5.78;;
29568;SDS011;16501;51.462;14.346;2023-05-07T06:24:32;11.02;;;5.70;;
29568;SDS011;16501;51.462;14.346;2023-05-07T06:26:57;8.75;;;5.80;;
29568;SDS011;16501;51.462;14.346;2023-05-07T06:29:25;9.10;;;6.07;;
29568;SDS011;16501;51.462;14.346;2023-05-07T06:31:51;7.72;;;5.90;;
29568;SDS011;16501;51.462;14.346;2023-05-07T06:34:19;8.07;;;5.65;;
29568;SDS011;16501;51.462;14.346;2023-05-07T06:36:44;8.25;;;6.30;;
29568;SDS011;16501;51.462;14.346;2023-05-07T06:39:09;12.23;;;7.20;;
29568;SDS011;16501;51.462;14.346;2023-05-07T06:41:35;10.90;;;7.03;;
29568;SDS011;16501;51.462;14.346;2023-05-07T06:44:01;14.80;;;7.68;;
29568;SDS011;16501;51.462;14.346;2023-05-07T06:46:27;11.13;;;7.20;;
29568;SDS011;16501;51.462;14.346;2023-05-07T06:48:53;10.07;;;6.88;;
29568;SDS011;16501;51.462;14.346;2023-05-07T06:51:19;10.52;;;7.30;;
29568;SDS011;16501;51.462;14.346;2023-05-07T06:53:44;13.95;;;7.65;;
29568;SDS011;16501;51.462;14.346;2023-05-07T06:56:09;13.80;;;8.63;;
29568;SDS011;16501;51.462;14.346;2023-05-07T06:58:35;12.60;;;7.90;;
29568;SDS011;16501;51.462;14.346;2023-05-07T07:01:00;14.00;;;9.00;;
29568;SDS011;16501;51.462;14.346;2023-05-07T07:03:25;9.60;;;7.80;;
29568;SDS011;16501;51.462;14.346;2023-05-07T07:05:51;12.20;;;7.50;;
29568;SDS011;16501;51.462;14.346;2023-05-07T07:08:17;11.82;;;8.05;;
29568;SDS011;16501;51.462;14.346;2023-05-07T07:10:43;13.50;;;8.07;;
29568;SDS011;16501;51.462;14.346;2023-05-07T07:13:08;11.50;;;7.55;;
29568;SDS011;16501;51.462;14.346;2023-05-07T07:15:33;11.88;;;8.02;;
29568;SDS011;16501;51.462;14.346;2023-05-07T07:17:58;14.18;;;8.10;;
29568;SDS011;16501;51.462;14.346;2023-05-07T07:20:24;13.07;;;8.55;;
29568;SDS011;16501;51.462;14.346;2023-05-07T07:22:49;13.25;;;8.95;;
29568;SDS011;16501;51.462;14.346;2023-05-07T07:25:15;15.90;;;9.90;;
29568;SDS011;16501;51.462;14.346;2023-05-07T07:27:40;15.00;;;10.50;;
29568;SDS011;16501;51.462;14.346;2023-05-07T07:30:05;14.63;;;9.75;;
29568;SDS011;16501;51.462;14.346;2023-05-07T07:32:31;11.68;;;8.68;;
29568;SDS011;16501;51.462;14.346;2023-05-07T07:34:58;17.02;;;10.10;;
29568;SDS011;16501;51.462;14.346;2023-05-07T07:37:23;15.85;;;11.40;;
29568;SDS011;16501;51.462;14.346;2023-05-07T07:39:50;19.63;;;10.30;;
29568;SDS011;16501;51.462;14.346;2023-05-07T07:42:15;15.43;;;9.68;;
29568;SDS011;16501;51.462;14.346;2023-05-07T07:44:41;14.00;;;10.15;;
29568;SDS011;16501;51.462;14.346;2023-05-07T07:47:06;13.57;;;9.05;;
29568;SDS011;16501;51.462;14.346;2023-05-07T07:49:31;11.52;;;8.15;;
29568;SDS011;16501;51.462;14.346;2023-05-07T07:51:56;16.65;;;9.32;;
29568;SDS011;16501;51.462;14.346;2023-05-07T07:54:24;11.45;;;7.45;;
29568;SDS011;16501;51.462;14.346;2023-05-07T07:56:49;13.38;;;7.85;;
29568;SDS011;16501;51.462;14.346;2023-05-07T07:59:15;11.13;;;7.45;;
29568;SDS011;16501;51.462;14.346;2023-05-07T08:01:43;12.48;;;7.05;;
29568;SDS011;16501;51.462;14.346;2023-05-07T08:04:08;9.98;;;7.53;;
29568;SDS011;16501;51.462;14.346;2023-05-07T08:06:34;17.67;;;8.80;;
29568;SDS011;16501;51.462;14.346;2023-05-07T08:08:59;12.38;;;8.18;;
29568;SDS011;16501;51.462;14.346;2023-05-07T08:11:24;9.00;;;6.63;;
29568;SDS011;16501;51.462;14.346;2023-05-07T08:13:50;13.18;;;7.50;;
29568;SDS011;16501;51.462;14.346;2023-05-07T08:16:15;13.50;;;7.57;;
29568;SDS011;16501;51.462;14.346;2023-05-07T08:18:41;10.77;;;6.55;;
29568;SDS011;16501;51.462;14.346;2023-05-07T08:21:06;13.25;;;7.15;;
29568;SDS011;16501;51.462;14.346;2023-05-07T08:23:31;9.63;;;6.03;;
29568;SDS011;16501;51.462;14.346;2023-05-07T08:25:57;7.43;;;5.85;;
29568;SDS011;16501;51.462;14.346;2023-05-07T08:28:22;8.00;;;5.43;;
29568;SDS011;16501;51.462;14.346;2023-05-07T08:30:49;9.38;;;5.63;;
29568;SDS011;16501;51.462;14.346;2023-05-07T08:33:14;6.18;;;4.63;;
29568;SDS011;16501;51.462;14.346;2023-05-07T08:35:40;8.30;;;5.07;;
29568;SDS011;16501;51.462;14.346;2023-05-07T08:38:05;6.32;;;4.35;;
29568;SDS011;16501;51.462;14.346;2023-05-07T08:40:31;7.15;;;4.50;;
29568;SDS011;16501;51.462;14.346;2023-05-07T08:43:02;8.32;;;4.68;;
29568;SDS011;16501;51.462;14.346;2023-05-07T08:45:28;5.82;;;3.92;;
29568;SDS011;16501;51.462;14.346;2023-05-07T08:47:58;9.05;;;4.47;;
29568;SDS011;16501;51.462;14.346;2023-05-07T08:50:24;4.75;;;3.60;;
29568;SDS011;16501;51.462;14.346;2023-05-07T08:52:53;5.22;;;3.25;;
29568;SDS011;16501;51.462;14.346;2023-05-07T08:55:19;3.92;;;3.03;;
29568;SDS011;16501;51.462;14.346;2023-05-07T08:57:45;5.65;;;3.08;;
29568;SDS011;16501;51.462;14.346;2023-05-07T09:00:10;5.78;;;3.50;;
29568;SDS011;16501;51.462;14.346;2023-05-07T09:02:36;3.92;;;2.95;;
29568;SDS011;16501;51.462;14.346;2023-05-07T09:05:02;5.45;;;2.67;;
29568;SDS011;16501;51.462;14.346;2023-05-07T09:07:27;4.60;;;3.05;;
29568;SDS011;16501;51.462;14.346;2023-05-07T09:09:53;4.43;;;3.28;;
29568;SDS011;16501;51.462;14.346;2023-05-07T09:12:22;5.65;;;3.33;;
29568;SDS011;16501;51.462;14.346;2023-05-07T09:14:48;6.40;;;3.92;;
29568;SDS011;16501;51.462;14.346;2023-05-07T09:17:15;4.40;;;3.20;;
29568;SDS011;16501;51.462;14.346;2023-05-07T09:19:41;3.47;;;2.40;;
29568;SDS011;16501;51.462;14.346;2023-05-07T09:22:06;4.43;;;2.65;;
29568;SDS011;16501;51.462;14.346;2023-05-07T09:24:34;6.72;;;2.70;;
29568;SDS011;16501;51.462;14.346;2023-05-07T09:27:01;3.30;;;2.63;;
29568;SDS011;16501;51.462;14.346;2023-05-07T09:29:27;5.47;;;2.90;;
29568;SDS011;16501;51.462;14.346;2023-05-07T09:31:54;2.53;;;2.30;;
29568;SDS011;16501;51.462;14.346;2023-05-07T09:34:20;6.60;;;2.20;;
29568;SDS011;16501;51.462;14.346;2023-05-07T09:36:46;2.83;;;2.35;;
29568;SDS011;16501;51.462;14.346;2023-05-07T09:39:11;4.55;;;2.75;;
29568;SDS011;16501;51.462;14.346;2023-05-07T09:41:44;2.95;;;2.60;;
29568;SDS011;16501;51.462;14.346;2023-05-07T09:44:11;4.57;;;2.42;;
29568;SDS011;16501;51.462;14.346;2023-05-07T09:46:36;2.80;;;2.38;;
29568;SDS011;16501;51.462;14.346;2023-05-07T09:49:03;4.05;;;2.30;;
29568;SDS011;16501;51.462;14.346;2023-05-07T09:51:37;3.33;;;2.22;;
29568;SDS011;16501;51.462;14.346;2023-05-07T09:54:10;3.35;;;2.10;;
29568;SDS011;16501;51.462;14.346;2023-05-07T09:56:36;4.15;;;2.10;;
29568;SDS011;16501;51.462;14.346;2023-05-07T09:59:02;2.78;;;2.25;;
29568;SDS011;16501;51.462;14.346;2023-05-07T10:01:28;3.40;;;2.35;;
29568;SDS011;16501;51.462;14.346;2023-05-07T10:03:55;2.97;;;2.30;;
29568;SDS011;16501;51.462;14.346;2023-05-07T10:06:23;5.20;;;2.13;;
29568;SDS011;16501;51.462;14.346;2023-05-07T10:08:50;2.83;;;2.28;;
29568;SDS011;16501;51.462;14.346;2023-05-07T10:11:17;4.03;;;2.35;;
29568;SDS011;16501;51.462;14.346;2023-05-07T10:13:43;3.13;;;2.40;;
29568;SDS011;16501;51.462;14.346;2023-05-07T10:16:08;2.65;;;1.95;;
29568;SDS011;16501;51.462;14.346;2023-05-07T10:18:34;4.55;;;2.35;;
29568;SDS011;16501;51.462;14.346;2023-05-07T10:21:16;5.93;;;1.92;;
29568;SDS011;16501;51.462;14.346;2023-05-07T10:23:48;7.85;;;2.65;;
29568;SDS011;16501;51.462;14.346;2023-05-07T10:26:14;3.08;;;2.53;;
29568;SDS011;16501;51.462;14.346;2023-05-07T10:28:43;7.30;;;2.45;;
29568;SDS011;16501;51.462;14.346;2023-05-07T10:33:51;3.20;;;2.13;;
29568;SDS011;16501;51.462;14.346;2023-05-07T10:36:19;4.00;;;2.78;;
29568;SDS011;16501;51.462;14.346;2023-05-07T10:38:46;3.38;;;2.28;;
29568;SDS011;16501;51.462;14.346;2023-05-07T10:41:11;3.15;;;2.22;;
29568;SDS011;16501;51.462;14.346;2023-05-07T10:43:40;2.92;;;2.38;;
29568;SDS011;16501;51.462;14.346;2023-05-07T10:51:31;4.68;;;3.15;;
29568;SDS011;16501;51.462;14.346;2023-05-07T10:56:34;3.22;;;2.85;;
29568;SDS011;16501;51.462;14.346;2023-05-07T10:59:26;3.95;;;2.63;;
29568;SDS011;16501;51.462;14.346;2023-05-07T11:01:57;6.32;;;2.85;;
29568;SDS011;16501;51.462;14.346;2023-05-07T11:04:23;5.82;;;2.80;;
29568;SDS011;16501;51.462;14.346;2023-05-07T11:15:07;4.05;;;3.30;;
29568;SDS011;16501;51.462;14.346;2023-05-07T11:17:34;5.25;;;2.80;;
29568;SDS011;16501;51.462;14.346;2023-05-07T11:20:16;5.35;;;3.00;;
29568;SDS011;16501;51.462;14.346;2023-05-07T11:22:42;3.60;;;2.45;;
29568;SDS011;16501;51.462;14.346;2023-05-07T11:25:07;3.40;;;2.72;;
29568;SDS011;16501;51.462;14.346;2023-05-07T11:27:32;6.07;;;3.42;;
29568;SDS011;16501;51.462;14.346;2023-05-07T11:29:58;6.43;;;3.65;;
29568;SDS011;16501;51.462;14.346;2023-05-07T11:32:24;4.88;;;3.35;;
29568;SDS011;16501;51.462;14.346;2023-05-07T11:34:52;5.57;;;4.30;;
29568;SDS011;16501;51.462;14.346;2023-05-07T11:37:18;6.50;;;3.67;;
29568;SDS011;16501;51.462;14.346;2023-05-07T11:39:44;8.27;;;4.07;;
29568;SDS011;16501;51.462;14.346;2023-05-07T11:42:27;5.65;;;4.05;;
29568;SDS011;16501;51.462;14.346;2023-05-07T11:44:53;6.03;;;4.25;;
29568;SDS011;16501;51.462;14.346;2023-05-07T11:47:18;8.50;;;6.20;;
29568;SDS011;16501;51.462;14.346;2023-05-07T11:49:48;5.28;;;4.20;;
29568;SDS011;16501;51.462;14.346;2023-05-07T11:52:14;6.70;;;5.10;;
29568;SDS011;16501;51.462;14.346;2023-05-07T11:54:40;8.80;;;5.43;;
29568;SDS011;16501;51.462;14.346;2023-05-07T11:57:05;9.93;;;5.38;;
29568;SDS011;16501;51.462;14.346;2023-05-07T11:59:38;8.52;;;4.80;;
29568;SDS011;16501;51.462;14.346;2023-05-07T12:02:05;7.15;;;5.38;;
29568;SDS011;16501;51.462;14.346;2023-05-07T12:04:31;9.20;;;4.68;;
29568;SDS011;16501;51.462;14.346;2023-05-07T12:06:56;8.35;;;5.20;;
29568;SDS011;16501;51.462;14.346;2023-05-07T12:09:21;6.72;;;5.18;;
29568;SDS011;16501;51.462;14.346;2023-05-07T12:11:47;7.68;;;5.25;;
29568;SDS011;16501;51.462;14.346;2023-05-07T12:14:12;8.48;;;5.00;;
29568;SDS011;16501;51.462;14.346;2023-05-07T12:16:38;7.32;;;4.97;;
29568;SDS011;16501;51.462;14.346;2023-05-07T12:19:05;5.88;;;4.72;;
29568;SDS011;16501;51.462;14.346;2023-05-07T12:21:33;6.55;;;4.57;;
29568;SDS011;16501;51.462;14.346;2023-05-07T12:23:58;10.00;;;5.40;;
29568;SDS011;16501;51.462;14.346;2023-05-07T12:26:24;8.40;;;5.43;;
29568;SDS011;16501;51.462;14.346;2023-05-07T12:28:49;10.23;;;6.50;;
29568;SDS011;16501;51.462;14.346;2023-05-07T12:31:15;6.13;;;5.05;;
29568;SDS011;16501;51.462;14.346;2023-05-07T12:33:40;7.40;;;5.50;;
29568;SDS011;16501;51.462;14.346;2023-05-07T12:36:06;6.88;;;5.55;;
29568;SDS011;16501;51.462;14.346;2023-05-07T12:38:36;7.72;;;5.10;;
29568;SDS011;16501;51.462;14.346;2023-05-07T12:41:03;7.03;;;4.93;;
29568;SDS011;16501;51.462;14.346;2023-05-07T12:43:28;7.72;;;5.32;;
29568;SDS011;16501;51.462;14.346;2023-05-07T12:45:55;11.23;;;6.03;;
29568;SDS011;16501;51.462;14.346;2023-05-07T12:48:21;7.93;;;4.65;;
29568;SDS011;16501;51.462;14.346;2023-05-07T12:50:50;9.52;;;5.22;;
29568;SDS011;16501;51.462;14.346;2023-05-07T12:53:16;7.70;;;5.15;;
29568;SDS011;16501;51.462;14.346;2023-05-07T12:55:43;10.43;;;5.78;;
29568;SDS011;16501;51.462;14.346;2023-05-07T12:58:15;6.22;;;5.03;;
29568;SDS011;16501;51.462;14.346;2023-05-07T13:01:05;7.80;;;5.35;;
29568;SDS011;16501;51.462;14.346;2023-05-07T13:03:33;7.93;;;5.20;;
29568;SDS011;16501;51.462;14.346;2023-05-07T13:06:00;8.38;;;5.03;;
29568;SDS011;16501;51.462;14.346;2023-05-07T13:08:32;6.85;;;5.15;;
29568;SDS011;16501;51.462;14.346;2023-05-07T13:10:59;10.07;;;5.22;;
29568;SDS011;16501;51.462;14.346;2023-05-07T13:13:32;7.20;;;5.07;;
29568;SDS011;16501;51.462;14.346;2023-05-07T13:15:58;6.57;;;5.07;;
29568;SDS011;16501;51.462;14.346;2023-05-07T13:18:25;8.68;;;5.28;;
29568;SDS011;16501;51.462;14.346;2023-05-07T13:20:51;6.78;;;4.43;;
29568;SDS011;16501;51.462;14.346;2023-05-07T13:23:17;6.53;;;4.90;;
29568;SDS011;16501;51.462;14.346;2023-05-07T13:25:42;7.35;;;4.55;;
29568;SDS011;16501;51.462;14.346;2023-05-07T13:28:08;7.55;;;4.57;;
29568;SDS011;16501;51.462;14.346;2023-05-07T13:30:33;7.38;;;4.88;;
29568;SDS011;16501;51.462;14.346;2023-05-07T13:32:58;6.75;;;5.07;;
29568;SDS011;16501;51.462;14.346;2023-05-07T13:35:23;6.75;;;4.85;;
29568;SDS011;16501;51.462;14.346;2023-05-07T13:37:49;5.93;;;4.63;;
29568;SDS011;16501;51.462;14.346;2023-05-07T13:40:15;7.95;;;4.55;;
29568;SDS011;16501;51.462;14.346;2023-05-07T13:42:40;6.22;;;4.28;;
29568;SDS011;16501;51.462;14.346;2023-05-07T13:45:06;4.75;;;3.80;;
29568;SDS011;16501;51.462;14.346;2023-05-07T13:47:32;6.35;;;4.22;;
29568;SDS011;16501;51.462;14.346;2023-05-07T13:49:57;6.50;;;4.45;;
29568;SDS011;16501;51.462;14.346;2023-05-07T13:52:22;7.10;;;4.82;;
29568;SDS011;16501;51.462;14.346;2023-05-07T13:54:48;7.38;;;4.20;;
29568;SDS011;16501;51.462;14.346;2023-05-07T13:57:13;6.28;;;4.57;;
29568;SDS011;16501;51.462;14.346;2023-05-07T13:59:38;5.22;;;4.70;;
29568;SDS011;16501;51.462;14.346;2023-05-07T14:02:03;6.55;;;4.43;;
29568;SDS011;16501;51.462;14.346;2023-05-07T14:04:30;6.78;;;4.05;;
29568;SDS011;16501;51.462;14.346;2023-05-07T14:06:55;4.32;;;3.67;;
29568;SDS011;16501;51.462;14.346;2023-05-07T14:09:20;5.47;;;4.13;;
29568;SDS011;16501;51.462;14.346;2023-05-07T14:11:46;6.13;;;4.57;;
29568;SDS011;16501;51.462;14.346;2023-05-07T14:14:12;9.55;;;4.00;;
29568;SDS011;16501;51.462;14.346;2023-05-07T14:16:37;6.72;;;4.72;;
29568;SDS011;16501;51.462;14.346;2023-05-07T14:19:03;6.32;;;4.38;;
29568;SDS011;16501;51.462;14.346;2023-05-07T14:21:28;4.93;;;3.55;;
29568;SDS011;16501;51.462;14.346;2023-05-07T14:23:53;4.32;;;3.47;;
29568;SDS011;16501;51.462;14.346;2023-05-07T14:26:19;6.20;;;3.50;;
29568;SDS011;16501;51.462;14.346;2023-05-07T14:28:45;4.50;;;3.03;;
29568;SDS011;16501;51.462;14.346;2023-05-07T14:31:11;4.22;;;3.47;;
29568;SDS011;16501;51.462;14.346;2023-05-07T14:33:37;4.50;;;3.90;;
29568;SDS011;16501;51.462;14.346;2023-05-07T14:36:02;4.50;;;3.60;;
29568;SDS011;16501;51.462;14.346;2023-05-07T14:38:28;5.57;;;3.83;;
29568;SDS011;16501;51.462;14.346;2023-05-07T14:40:53;5.03;;;3.80;;